sensor_id;sensor_type;location;lat;lon;timestamp;pressure;altitude;pressure_sealevel;temperature;humidity
55932;BME280;41837;55.700;37.984;2023-06-22T00:02:22;100336.00;;;8.46;100.00
55932;BME280;41837;55.700;37.984;2023-06-22T00:04:51;100340.28;;;8.48;100.00
55932;BME280;41837;55.700;37.984;2023-06-22T00:07:18;100333.97;;;8.57;100.00
55932;BME280;41837;55.700;37.984;2023-06-22T00:09:45;100335.97;;;8.47;100.00
55932;BME280;41837;55.700;37.984;2023-06-22T00:12:11;100336.91;;;8.45;100.00
55932;BME280;41837;55.700;37.984;2023-06-22T00:14:38;100329.09;;;8.45;100.00
55932;BME280;41837;55.700;37.984;2023-06-22T00:17:04;100334.56;;;8.32;100.00
55932;BME280;41837;55.700;37.984;2023-06-22T00:19:30;100329.22;;;8.38;100.00
55932;BME280;41837;55.700;37.984;2023-06-22T00:21:56;100343.56;;;8.19;100.00
55932;BME280;41837;55.700;37.984;2023-06-22T00:24:26;100339.13;;;8.22;100.00
55932;BME280;41837;55.700;37.984;2023-06-22T00:26:52;100331.75;;;8.04;100.00
55932;BME280;41837;55.700;37.984;2023-06-22T00:29:19;100349.16;;;8.39;100.00
55932;BME280;41837;55.700;37.984;2023-06-22T00:31:45;100355.66;;;8.59;100.00
55932;BME280;41837;55.700;37.984;2023-06-22T00:34:11;100350.53;;;8.56;100.00
55932;BME280;41837;55.700;37.984;2023-06-22T00:36:38;100347.66;;;8.65;100.00
55932;BME280;41837;55.700;37.984;2023-06-22T00:39:06;100355.50;;;8.65;100.00
55932;BME280;41837;55.700;37.984;2023-06-22T00:41:34;100352.00;;;8.66;100.00
55932;BME280;41837;55.700;37.984;2023-06-22T00:44:00;100352.56;;;8.41;100.00
55932;BME280;41837;55.700;37.984;2023-06-22T00:46:26;100357.28;;;8.27;100.00
55932;BME280;41837;55.700;37.984;2023-06-22T00:48:52;100358.19;;;8.25;100.00
55932;BME280;41837;55.700;37.984;2023-06-22T00:51:23;100352.56;;;8.43;100.00
55932;BME280;41837;55.700;37.984;2023-06-22T00:53:51;100357.63;;;8.49;100.00
55932;BME280;41837;55.700;37.984;2023-06-22T00:56:19;100351.47;;;8.52;100.00
55932;BME280;41837;55.700;37.984;2023-06-22T00:58:51;100351.34;;;8.58;100.00
55932;BME280;41837;55.700;37.984;2023-06-22T01:01:19;100351.53;;;8.50;100.00
55932;BME280;41837;55.700;37.984;2023-06-22T01:03:49;100351.41;;;8.55;100.00
55932;BME280;41837;55.700;37.984;2023-06-22T01:06:22;100347.00;;;8.57;100.00
55932;BME280;41837;55.700;37.984;2023-06-22T01:09:02;100342.06;;;8.81;100.00
55932;BME280;41837;55.700;37.984;2023-06-22T01:11:36;100335.09;;;9.14;100.00
55932;BME280;41837;55.700;37.984;2023-06-22T01:14:21;100325.88;;;9.62;100.00
55932;BME280;41837;55.700;37.984;2023-06-22T01:16:51;100321.81;;;10.09;100.00
55932;BME280;41837;55.700;37.984;2023-06-22T01:21:53;100321.22;;;10.81;100.00
55932;BME280;41837;55.700;37.984;2023-06-22T01:24:51;100311.16;;;10.94;100.00
55932;BME280;41837;55.700;37.984;2023-06-22T01:29:57;100326.34;;;10.33;100.00
55932;BME280;41837;55.700;37.984;2023-06-22T01:32:31;100323.94;;;11.27;100.00
55932;BME280;41837;55.700;37.984;2023-06-22T01:35:04;100313.44;;;11.74;100.00
55932;BME280;41837;55.700;37.984;2023-06-22T01:37:33;100303.97;;;11.94;100.00
55932;BME280;41837;55.700;37.984;2023-06-22T01:40:01;100315.50;;;11.19;100.00
55932;BME280;41837;55.700;37.984;2023-06-22T01:42:30;100306.44;;;10.54;100.00
55932;BME280;41837;55.700;37.984;2023-06-22T01:44:58;100312.91;;;10.43;100.00
55932;BME280;41837;55.700;37.984;2023-06-22T01:47:26;100326.97;;;10.11;100.00
55932;BME280;41837;55.700;37.984;2023-06-22T01:49:53;100323.75;;;10.58;100.00
55932;BME280;41837;55.700;37.984;2023-06-22T01:52:21;100320.78;;;10.42;100.00
55932;BME280;41837;55.700;37.984;2023-06-22T01:54:47;100319.97;;;11.17;100.00
55932;BME280;41837;55.700;37.984;2023-06-22T01:57:14;100304.25;;;11.86;100.00
55932;BME280;41837;55.700;37.984;2023-06-22T01:59:53;100297.78;;;12.39;99.61
55932;BME280;41837;55.700;37.984;2023-06-22T02:02:23;100306.31;;;12.44;95.84
55932;BME280;41837;55.700;37.984;2023-06-22T02:05:10;100306.81;;;13.33;92.33
55932;BME280;41837;55.700;37.984;2023-06-22T02:08:02;100304.28;;;13.70;88.14
55932;BME280;41837;55.700;37.984;2023-06-22T02:10:32;100301.66;;;14.24;86.09
55932;BME280;41837;55.700;37.984;2023-06-22T02:13:01;100294.06;;;15.05;83.04
55932;BME280;41837;55.700;37.984;2023-06-22T02:15:29;100282.19;;;15.14;81.09
55932;BME280;41837;55.700;37.984;2023-06-22T02:17:55;100296.91;;;15.34;80.47
55932;BME280;41837;55.700;37.984;2023-06-22T02:20:42;100282.00;;;15.98;77.02
55932;BME280;41837;55.700;37.984;2023-06-22T02:23:09;100284.91;;;16.54;74.72
55932;BME280;41837;55.700;37.984;2023-06-22T02:25:36;100277.19;;;16.65;71.90
55932;BME280;41837;55.700;37.984;2023-06-22T02:28:03;100272.66;;;15.92;75.42
55932;BME280;41837;55.700;37.984;2023-06-22T02:30:29;100266.75;;;16.03;76.39
55932;BME280;41837;55.700;37.984;2023-06-22T02:32:55;100267.09;;;15.49;78.53
55932;BME280;41837;55.700;37.984;2023-06-22T02:35:28;100269.72;;;16.13;77.74
55932;BME280;41837;55.700;37.984;2023-06-22T02:37:59;100264.69;;;16.38;74.62
55932;BME280;41837;55.700;37.984;2023-06-22T02:40:27;100258.34;;;16.27;76.05
55932;BME280;41837;55.700;37.984;2023-06-22T02:42:57;100260.31;;;15.93;76.79
55932;BME280;41837;55.700;37.984;2023-06-22T02:45:30;100253.25;;;15.93;76.95
55932;BME280;41837;55.700;37.984;2023-06-22T02:47:57;100254.84;;;15.32;80.10
55932;BME280;41837;55.700;37.984;2023-06-22T02:50:24;100252.94;;;14.69;82.11
55932;BME280;41837;55.700;37.984;2023-06-22T02:52:51;100262.78;;;14.65;84.99
55932;BME280;41837;55.700;37.984;2023-06-22T02:55:17;100255.19;;;14.07;88.54
55932;BME280;41837;55.700;37.984;2023-06-22T02:57:51;100249.78;;;14.62;87.62
55932;BME280;41837;55.700;37.984;2023-06-22T03:00:20;100245.00;;;16.30;79.90
55932;BME280;41837;55.700;37.984;2023-06-22T03:02:49;100242.88;;;15.74;79.60
55932;BME280;41837;55.700;37.984;2023-06-22T03:05:16;100241.50;;;14.70;83.90
55932;BME280;41837;55.700;37.984;2023-06-22T03:07:45;100242.56;;;14.13;89.19
55932;BME280;41837;55.700;37.984;2023-06-22T03:10:13;100243.75;;;14.43;88.59
55932;BME280;41837;55.700;37.984;2023-06-22T03:12:41;100243.13;;;15.06;87.48
55932;BME280;41837;55.700;37.984;2023-06-22T03:15:10;100242.06;;;14.92;85.17
55932;BME280;41837;55.700;37.984;2023-06-22T03:17:37;100249.47;;;14.68;88.23
55932;BME280;41837;55.700;37.984;2023-06-22T03:20:09;100246.69;;;15.53;84.85
55932;BME280;41837;55.700;37.984;2023-06-22T03:22:39;100237.03;;;15.53;82.94
55932;BME280;41837;55.700;37.984;2023-06-22T03:25:08;100239.72;;;15.36;85.04
55932;BME280;41837;55.700;37.984;2023-06-22T03:27:42;100242.78;;;15.44;85.64
55932;BME280;41837;55.700;37.984;2023-06-22T03:30:11;100231.91;;;16.87;80.30
55932;BME280;41837;55.700;37.984;2023-06-22T03:32:38;100234.78;;;17.95;73.22
55932;BME280;41837;55.700;37.984;2023-06-22T03:35:06;100232.81;;;17.29;73.74
55932;BME280;41837;55.700;37.984;2023-06-22T03:37:35;100233.91;;;17.40;73.96
55932;BME280;41837;55.700;37.984;2023-06-22T03:40:01;100233.56;;;17.59;72.32
55932;BME280;41837;55.700;37.984;2023-06-22T03:42:35;100234.38;;;17.32;73.19
55932;BME280;41837;55.700;37.984;2023-06-22T03:45:03;100227.97;;;17.63;73.47
55932;BME280;41837;55.700;37.984;2023-06-22T03:47:34;100225.53;;;18.15;68.99
55932;BME280;41837;55.700;37.984;2023-06-22T03:50:01;100219.75;;;18.61;68.25
55932;BME280;41837;55.700;37.984;2023-06-22T03:52:33;100213.88;;;18.04;69.48
55932;BME280;41837;55.700;37.984;2023-06-22T03:55:00;100205.66;;;18.48;66.95
55932;BME280;41837;55.700;37.984;2023-06-22T03:57:26;100213.16;;;19.42;64.45
55932;BME280;41837;55.700;37.984;2023-06-22T03:59:56;100208.31;;;18.86;63.69
55932;BME280;41837;55.700;37.984;2023-06-22T04:02:22;100212.19;;;19.43;63.91
55932;BME280;41837;55.700;37.984;2023-06-22T04:04:49;100210.94;;;19.60;60.58
55932;BME280;41837;55.700;37.984;2023-06-22T04:07:15;100208.03;;;20.00;60.51
55932;BME280;41837;55.700;37.984;2023-06-22T04:09:43;100201.94;;;19.63;60.97
55932;BME280;41837;55.700;37.984;2023-06-22T04:12:10;100206.31;;;20.23;58.23
55932;BME280;41837;55.700;37.984;2023-06-22T04:14:36;100194.81;;;20.70;55.13
55932;BME280;41837;55.700;37.984;2023-06-22T04:17:02;100194.19;;;20.89;52.57
55932;BME280;41837;55.700;37.984;2023-06-22T04:19:29;100186.47;;;21.84;48.57
55932;BME280;41837;55.700;37.984;2023-06-22T04:21:55;100182.16;;;21.51;48.99
55932;BME280;41837;55.700;37.984;2023-06-22T04:24:46;100179.31;;;21.09;49.11
55932;BME280;41837;55.700;37.984;2023-06-22T04:27:12;100183.88;;;20.39;50.30
55932;BME280;41837;55.700;37.984;2023-06-22T04:29:39;100175.06;;;21.17;49.64
55932;BME280;41837;55.700;37.984;2023-06-22T04:32:15;100177.88;;;20.82;50.37
55932;BME280;41837;55.700;37.984;2023-06-22T04:34:42;100169.31;;;20.90;51.25
55932;BME280;41837;55.700;37.984;2023-06-22T04:37:09;100169.25;;;20.22;50.38
55932;BME280;41837;55.700;37.984;2023-06-22T04:39:35;100173.06;;;20.98;49.15
55932;BME280;41837;55.700;37.984;2023-06-22T04:42:01;100166.50;;;21.14;49.10
55932;BME280;41837;55.700;37.984;2023-06-22T04:44:28;100167.31;;;22.44;46.53
55932;BME280;41837;55.700;37.984;2023-06-22T04:46:58;100154.00;;;23.44;45.38
55932;BME280;41837;55.700;37.984;2023-06-22T04:49:35;100165.31;;;20.61;49.53
55932;BME280;41837;55.700;37.984;2023-06-22T04:52:05;100159.88;;;21.84;47.22
55932;BME280;41837;55.700;37.984;2023-06-22T04:54:32;100154.19;;;22.31;47.26
55932;BME280;41837;55.700;37.984;2023-06-22T04:57:02;100160.56;;;21.65;47.53
55932;BME280;41837;55.700;37.984;2023-06-22T04:59:30;100165.31;;;20.84;48.66
55932;BME280;41837;55.700;37.984;2023-06-22T05:01:58;100161.81;;;21.38;48.52
55932;BME280;41837;55.700;37.984;2023-06-22T05:04:26;100158.16;;;22.77;45.03
55932;BME280;41837;55.700;37.984;2023-06-22T05:06:54;100161.56;;;22.89;45.86
55932;BME280;41837;55.700;37.984;2023-06-22T05:09:21;100160.56;;;21.65;46.52
55932;BME280;41837;55.700;37.984;2023-06-22T05:11:47;100151.19;;;23.75;45.59
55932;BME280;41837;55.700;37.984;2023-06-22T05:14:14;100152.75;;;23.68;44.52
55932;BME280;41837;55.700;37.984;2023-06-22T05:16:42;100170.47;;;23.89;43.60
55932;BME280;41837;55.700;37.984;2023-06-22T05:19:08;100154.81;;;22.75;45.13
55932;BME280;41837;55.700;37.984;2023-06-22T05:21:34;100159.69;;;22.39;47.38
55932;BME280;41837;55.700;37.984;2023-06-22T05:24:00;100162.28;;;21.87;46.64
55932;BME280;41837;55.700;37.984;2023-06-22T05:26:30;100156.84;;;23.02;44.46
55932;BME280;41837;55.700;37.984;2023-06-22T05:28:57;100157.88;;;24.28;43.48
55932;BME280;41837;55.700;37.984;2023-06-22T05:31:23;100141.28;;;25.00;39.97
55932;BME280;41837;55.700;37.984;2023-06-22T05:33:53;100153.84;;;24.05;39.99
55932;BME280;41837;55.700;37.984;2023-06-22T05:36:19;100142.06;;;23.97;40.70
55932;BME280;41837;55.700;37.984;2023-06-22T05:38:47;100145.31;;;22.92;43.15
55932;BME280;41837;55.700;37.984;2023-06-22T05:41:13;100150.22;;;23.37;41.78
55932;BME280;41837;55.700;37.984;2023-06-22T05:43:40;100143.19;;;24.62;39.95
55932;BME280;41837;55.700;37.984;2023-06-22T05:46:06;100145.97;;;25.43;38.19
55932;BME280;41837;55.700;37.984;2023-06-22T05:48:32;100141.09;;;24.55;39.29
55932;BME280;41837;55.700;37.984;2023-06-22T05:50:59;100146.56;;;23.97;39.09
55932;BME280;41837;55.700;37.984;2023-06-22T05:53:25;100139.94;;;24.11;39.81
55932;BME280;41837;55.700;37.984;2023-06-22T05:55:51;100142.31;;;25.44;37.67
55932;BME280;41837;55.700;37.984;2023-06-22T05:58:17;100138.28;;;25.84;36.16
55932;BME280;41837;55.700;37.984;2023-06-22T06:00:43;100148.56;;;23.95;38.35
55932;BME280;41837;55.700;37.984;2023-06-22T06:03:10;100136.19;;;24.41;37.23
55932;BME280;41837;55.700;37.984;2023-06-22T06:05:37;100132.69;;;25.78;37.05
55932;BME280;41837;55.700;37.984;2023-06-22T06:08:05;100137.75;;;25.99;36.38
55932;BME280;41837;55.700;37.984;2023-06-22T06:10:32;100133.19;;;26.17;35.30
55932;BME280;41837;55.700;37.984;2023-06-22T06:12:59;100132.41;;;26.94;35.23
55932;BME280;41837;55.700;37.984;2023-06-22T06:15:39;100126.56;;;27.07;36.19
55932;BME280;41837;55.700;37.984;2023-06-22T06:18:18;100125.63;;;27.41;33.45
55932;BME280;41837;55.700;37.984;2023-06-22T06:20:44;100125.28;;;26.68;34.12
55932;BME280;41837;55.700;37.984;2023-06-22T06:23:10;100114.31;;;26.61;34.42
55932;BME280;41837;55.700;37.984;2023-06-22T06:25:37;100112.66;;;27.20;34.71
55932;BME280;41837;55.700;37.984;2023-06-22T06:28:03;100118.81;;;26.53;33.81
55932;BME280;41837;55.700;37.984;2023-06-22T06:30:31;100123.84;;;26.90;34.82
55932;BME280;41837;55.700;37.984;2023-06-22T06:32:57;100124.72;;;26.65;35.12
55932;BME280;41837;55.700;37.984;2023-06-22T06:35:35;100117.63;;;26.55;34.29
55932;BME280;41837;55.700;37.984;2023-06-22T06:38:04;100123.97;;;25.94;34.01
55932;BME280;41837;55.700;37.984;2023-06-22T06:40:54;100113.38;;;27.30;33.00
55932;BME280;41837;55.700;37.984;2023-06-22T06:43:21;100123.97;;;27.40;33.91
55932;BME280;41837;55.700;37.984;2023-06-22T06:45:48;100107.16;;;27.38;32.15
55932;BME280;41837;55.700;37.984;2023-06-22T06:48:14;100109.47;;;27.08;33.51
55932;BME280;41837;55.700;37.984;2023-06-22T06:50:41;100105.00;;;27.58;32.77
55932;BME280;41837;55.700;37.984;2023-06-22T06:53:21;100103.50;;;27.63;32.27
55932;BME280;41837;55.700;37.984;2023-06-22T06:56:24;100106.00;;;27.89;31.77
55932;BME280;41837;55.700;37.984;2023-06-22T06:58:51;100109.19;;;27.44;32.08
55932;BME280;41837;55.700;37.984;2023-06-22T07:01:17;100095.34;;;28.29;31.88
55932;BME280;41837;55.700;37.984;2023-06-22T07:03:43;100105.13;;;28.14;31.47
55932;BME280;41837;55.700;37.984;2023-06-22T07:06:09;100107.59;;;28.40;31.10
55932;BME280;41837;55.700;37.984;2023-06-22T07:08:36;100097.78;;;28.95;29.59
55932;BME280;41837;55.700;37.984;2023-06-22T07:11:02;100096.25;;;28.53;32.24
55932;BME280;41837;55.700;37.984;2023-06-22T07:13:28;100098.13;;;27.47;32.28
55932;BME280;41837;55.700;37.984;2023-06-22T07:15:55;100092.78;;;26.45;31.34
55932;BME280;41837;55.700;37.984;2023-06-22T07:18:33;100091.78;;;26.80;32.96
55932;BME280;41837;55.700;37.984;2023-06-22T07:20:59;100105.41;;;27.04;32.44
55932;BME280;41837;55.700;37.984;2023-06-22T07:23:26;100098.66;;;26.49;32.67
55932;BME280;41837;55.700;37.984;2023-06-22T07:25:52;100100.28;;;26.68;33.12
55932;BME280;41837;55.700;37.984;2023-06-22T07:28:18;100096.63;;;27.77;31.25
55932;BME280;41837;55.700;37.984;2023-06-22T07:30:46;100088.44;;;26.78;33.21
55932;BME280;41837;55.700;37.984;2023-06-22T07:33:12;100088.38;;;26.28;32.53
55932;BME280;41837;55.700;37.984;2023-06-22T07:35:38;100090.50;;;25.54;33.52
55932;BME280;41837;55.700;37.984;2023-06-22T07:38:30;100095.16;;;25.16;33.92
55932;BME280;41837;55.700;37.984;2023-06-22T07:40:58;100099.59;;;25.25;34.13
55932;BME280;41837;55.700;37.984;2023-06-22T07:43:24;100096.09;;;25.86;33.81
55932;BME280;41837;55.700;37.984;2023-06-22T07:45:51;100093.50;;;26.55;32.74
55932;BME280;41837;55.700;37.984;2023-06-22T07:48:20;100097.63;;;25.89;33.17
55932;BME280;41837;55.700;37.984;2023-06-22T07:50:48;100095.41;;;26.02;34.57
55932;BME280;41837;55.700;37.984;2023-06-22T07:53:15;100095.53;;;25.21;34.15
55932;BME280;41837;55.700;37.984;2023-06-22T07:55:45;100091.22;;;25.82;33.20
55932;BME280;41837;55.700;37.984;2023-06-22T07:58:11;100094.44;;;26.12;31.94
55932;BME280;41837;55.700;37.984;2023-06-22T08:00:37;100085.59;;;26.96;32.03
55932;BME280;41837;55.700;37.984;2023-06-22T08:03:03;100080.13;;;27.23;32.61
55932;BME280;41837;55.700;37.984;2023-06-22T08:05:31;100075.72;;;26.89;32.39
55932;BME280;41837;55.700;37.984;2023-06-22T08:07:58;100081.63;;;27.17;31.90
55932;BME280;41837;55.700;37.984;2023-06-22T08:10:24;100072.09;;;27.64;32.11
55932;BME280;41837;55.700;37.984;2023-06-22T08:12:52;100071.38;;;27.21;31.40
55932;BME280;41837;55.700;37.984;2023-06-22T08:15:19;100069.72;;;26.18;32.79
55932;BME280;41837;55.700;37.984;2023-06-22T08:17:45;100073.44;;;26.25;33.06
55932;BME280;41837;55.700;37.984;2023-06-22T08:20:36;100069.31;;;26.04;33.94
55932;BME280;41837;55.700;37.984;2023-06-22T08:23:45;100069.44;;;25.77;33.35
55932;BME280;41837;55.700;37.984;2023-06-22T08:26:11;100055.25;;;25.84;32.85
55932;BME280;41837;55.700;37.984;2023-06-22T08:28:38;100058.81;;;25.67;34.36
55932;BME280;41837;55.700;37.984;2023-06-22T08:31:04;100057.91;;;26.37;32.91
55932;BME280;41837;55.700;37.984;2023-06-22T08:33:31;100045.69;;;26.34;34.16
55932;BME280;41837;55.700;37.984;2023-06-22T08:35:58;100057.00;;;26.20;33.01
55932;BME280;41837;55.700;37.984;2023-06-22T08:38:25;100050.03;;;26.01;33.63
55932;BME280;41837;55.700;37.984;2023-06-22T08:40:52;100041.91;;;25.93;35.25
55932;BME280;41837;55.700;37.984;2023-06-22T08:43:18;100045.63;;;26.26;32.72
55932;BME280;41837;55.700;37.984;2023-06-22T08:45:45;100057.06;;;26.36;34.43
55932;BME280;41837;55.700;37.984;2023-06-22T08:48:12;100043.34;;;26.05;33.32
55932;BME280;41837;55.700;37.984;2023-06-22T08:50:50;100052.81;;;26.17;35.13
55932;BME280;41837;55.700;37.984;2023-06-22T08:53:16;100041.22;;;26.51;33.48
55932;BME280;41837;55.700;37.984;2023-06-22T08:55:42;100033.28;;;26.33;33.66
55932;BME280;41837;55.700;37.984;2023-06-22T08:58:08;100024.34;;;25.90;32.69
55932;BME280;41837;55.700;37.984;2023-06-22T09:00:34;100029.47;;;26.10;33.65
55932;BME280;41837;55.700;37.984;2023-06-22T09:03:01;100032.47;;;26.49;33.80
55932;BME280;41837;55.700;37.984;2023-06-22T09:05:28;100030.22;;;25.94;34.02
55932;BME280;41837;55.700;37.984;2023-06-22T09:07:56;100030.81;;;26.48;32.82
55932;BME280;41837;55.700;37.984;2023-06-22T09:10:22;100029.88;;;26.23;33.28
55932;BME280;41837;55.700;37.984;2023-06-22T09:12:49;100027.03;;;26.24;32.93
55932;BME280;41837;55.700;37.984;2023-06-22T09:15:15;100018.06;;;26.42;32.31
55932;BME280;41837;55.700;37.984;2023-06-22T09:17:41;100006.31;;;26.35;33.37
55932;BME280;41837;55.700;37.984;2023-06-22T09:20:32;100012.47;;;26.19;32.76
55932;BME280;41837;55.700;37.984;2023-06-22T09:23:22;100003.19;;;26.13;32.87
55932;BME280;41837;55.700;37.984;2023-06-22T09:25:49;100007.84;;;26.46;33.28
55932;BME280;41837;55.700;37.984;2023-06-22T09:28:15;100010.06;;;26.58;32.63
55932;BME280;41837;55.700;37.984;2023-06-22T09:30:45;100010.16;;;26.40;33.25
55932;BME280;41837;55.700;37.984;2023-06-22T09:33:12;100006.91;;;26.12;33.36
55932;BME280;41837;55.700;37.984;2023-06-22T09:35:38;100007.38;;;26.58;33.07
55932;BME280;41837;55.700;37.984;2023-06-22T09:38:05;100014.47;;;26.25;32.22
55932;BME280;41837;55.700;37.984;2023-06-22T09:40:31;100006.19;;;26.02;32.74
55932;BME280;41837;55.700;37.984;2023-06-22T09:43:01;100006.06;;;25.85;31.98
55932;BME280;41837;55.700;37.984;2023-06-22T09:45:27;100003.00;;;26.06;31.34
55932;BME280;41837;55.700;37.984;2023-06-22T09:47:53;100000.09;;;26.26;32.02
55932;BME280;41837;55.700;37.984;2023-06-22T09:50:20;100003.41;;;26.20;32.75
55932;BME280;41837;55.700;37.984;2023-06-22T09:52:58;99999.91;;;26.28;32.30
55932;BME280;41837;55.700;37.984;2023-06-22T09:55:24;100001.97;;;25.99;32.20
55932;BME280;41837;55.700;37.984;2023-06-22T09:57:51;99994.69;;;25.92;33.29
55932;BME280;41837;55.700;37.984;2023-06-22T10:00:41;99995.50;;;26.18;33.25
55932;BME280;41837;55.700;37.984;2023-06-22T10:03:08;100002.53;;;26.11;33.73
55932;BME280;41837;55.700;37.984;2023-06-22T10:05:35;99994.25;;;26.31;32.47
55932;BME280;41837;55.700;37.984;2023-06-22T10:08:01;99989.56;;;26.33;32.04
55932;BME280;41837;55.700;37.984;2023-06-22T10:10:27;99982.22;;;26.43;33.50
55932;BME280;41837;55.700;37.984;2023-06-22T10:12:56;99980.31;;;26.27;32.07
55932;BME280;41837;55.700;37.984;2023-06-22T10:15:23;99969.38;;;26.12;31.67
55932;BME280;41837;55.700;37.984;2023-06-22T10:18:01;99971.59;;;26.25;32.26
55932;BME280;41837;55.700;37.984;2023-06-22T10:20:47;99970.41;;;26.19;32.38
55932;BME280;41837;55.700;37.984;2023-06-22T10:23:14;99974.66;;;25.96;33.36
55932;BME280;41837;55.700;37.984;2023-06-22T10:25:40;99972.38;;;26.09;33.25
55932;BME280;41837;55.700;37.984;2023-06-22T10:28:07;99977.22;;;26.56;33.53
55932;BME280;41837;55.700;37.984;2023-06-22T10:30:33;99975.84;;;26.44;32.73
55932;BME280;41837;55.700;37.984;2023-06-22T10:33:12;99963.75;;;26.32;32.05
55932;BME280;41837;55.700;37.984;2023-06-22T10:35:38;99959.38;;;26.22;32.73
55932;BME280;41837;55.700;37.984;2023-06-22T10:38:06;99938.38;;;26.69;32.10
55932;BME280;41837;55.700;37.984;2023-06-22T10:40:32;99948.28;;;26.68;32.89
55932;BME280;41837;55.700;37.984;2023-06-22T10:42:59;99948.63;;;26.73;31.32
55932;BME280;41837;55.700;37.984;2023-06-22T10:45:25;99948.94;;;26.70;33.17
55932;BME280;41837;55.700;37.984;2023-06-22T10:47:53;99949.22;;;26.51;32.29
55932;BME280;41837;55.700;37.984;2023-06-22T10:50:19;99941.19;;;26.59;32.59
55932;BME280;41837;55.700;37.984;2023-06-22T10:52:46;99943.63;;;26.19;32.06
55932;BME280;41837;55.700;37.984;2023-06-22T10:55:12;99943.47;;;26.21;33.51
55932;BME280;41837;55.700;37.984;2023-06-22T10:57:51;99944.88;;;25.99;32.70
55932;BME280;41837;55.700;37.984;2023-06-22T11:00:18;99953.66;;;26.25;32.93
55932;BME280;41837;55.700;37.984;2023-06-22T11:02:45;99945.47;;;26.27;32.15
55932;BME280;41837;55.700;37.984;2023-06-22T11:05:23;99939.44;;;26.25;33.07
55932;BME280;41837;55.700;37.984;2023-06-22T11:07:50;99939.00;;;26.46;32.91
55932;BME280;41837;55.700;37.984;2023-06-22T11:10:17;99936.31;;;26.54;32.65
55932;BME280;41837;55.700;37.984;2023-06-22T11:12:58;99941.31;;;26.33;34.53
55932;BME280;41837;55.700;37.984;2023-06-22T11:15:25;99917.72;;;25.94;33.38
55932;BME280;41837;55.700;37.984;2023-06-22T11:17:51;99924.78;;;26.62;33.51
55932;BME280;41837;55.700;37.984;2023-06-22T11:20:18;99928.59;;;26.43;32.85
55932;BME280;41837;55.700;37.984;2023-06-22T11:22:44;99927.94;;;26.57;33.29
55932;BME280;41837;55.700;37.984;2023-06-22T11:25:10;99925.31;;;26.98;33.15
55932;BME280;41837;55.700;37.984;2023-06-22T11:27:39;99938.06;;;27.05;33.72
55932;BME280;41837;55.700;37.984;2023-06-22T11:30:06;99948.13;;;26.86;33.29
55932;BME280;41837;55.700;37.984;2023-06-22T11:35:30;99921.78;;;26.65;31.53
55932;BME280;41837;55.700;37.984;2023-06-22T11:38:09;99922.31;;;26.10;32.31
55932;BME280;41837;55.700;37.984;2023-06-22T11:40:35;99919.81;;;25.74;32.98
55932;BME280;41837;55.700;37.984;2023-06-22T11:43:01;99916.44;;;26.06;32.39
55932;BME280;41837;55.700;37.984;2023-06-22T11:45:28;99914.69;;;25.88;32.10
55932;BME280;41837;55.700;37.984;2023-06-22T11:47:55;99912.00;;;25.88;32.73
55932;BME280;41837;55.700;37.984;2023-06-22T11:50:33;99916.38;;;26.57;31.69
55932;BME280;41837;55.700;37.984;2023-06-22T11:53:02;99916.03;;;26.52;32.38
55932;BME280;41837;55.700;37.984;2023-06-22T11:55:41;99902.66;;;26.76;31.97
55932;BME280;41837;55.700;37.984;2023-06-22T11:58:20;99905.44;;;26.34;32.05
55932;BME280;41837;55.700;37.984;2023-06-22T12:00:46;99895.72;;;26.16;34.03
55932;BME280;41837;55.700;37.984;2023-06-22T12:03:12;99890.53;;;26.23;32.53
55932;BME280;41837;55.700;37.984;2023-06-22T12:05:52;99889.50;;;26.08;33.13
55932;BME280;41837;55.700;37.984;2023-06-22T12:08:21;99886.28;;;25.96;32.55
55932;BME280;41837;55.700;37.984;2023-06-22T12:10:59;99869.72;;;26.00;33.88
55932;BME280;41837;55.700;37.984;2023-06-22T12:13:25;99874.16;;;25.92;34.06
55932;BME280;41837;55.700;37.984;2023-06-22T12:15:52;99867.59;;;25.43;34.82
55932;BME280;41837;55.700;37.984;2023-06-22T12:18:18;99871.06;;;25.62;34.37
55932;BME280;41837;55.700;37.984;2023-06-22T12:20:59;99861.06;;;25.38;35.20
55932;BME280;41837;55.700;37.984;2023-06-22T12:23:25;99875.78;;;25.16;34.56
55932;BME280;41837;55.700;37.984;2023-06-22T12:25:52;99866.22;;;25.13;34.52
55932;BME280;41837;55.700;37.984;2023-06-22T12:28:30;99864.06;;;25.17;34.49
55932;BME280;41837;55.700;37.984;2023-06-22T12:30:56;99853.50;;;25.07;34.21
55932;BME280;41837;55.700;37.984;2023-06-22T12:33:35;99856.84;;;25.09;34.39
55932;BME280;41837;55.700;37.984;2023-06-22T12:36:01;99855.22;;;25.16;35.53
55932;BME280;41837;55.700;37.984;2023-06-22T12:38:27;99845.50;;;25.15;34.03
55932;BME280;41837;55.700;37.984;2023-06-22T12:40:54;99844.81;;;25.31;34.91
55932;BME280;41837;55.700;37.984;2023-06-22T12:43:20;99842.19;;;25.47;35.33
55932;BME280;41837;55.700;37.984;2023-06-22T12:45:47;99838.31;;;25.84;34.66
55932;BME280;41837;55.700;37.984;2023-06-22T12:48:13;99836.38;;;25.00;34.48
55932;BME280;41837;55.700;37.984;2023-06-22T12:50:51;99836.94;;;25.29;33.86
55932;BME280;41837;55.700;37.984;2023-06-22T12:53:29;99826.56;;;25.69;34.13
55932;BME280;41837;55.700;37.984;2023-06-22T12:55:55;99830.38;;;25.24;33.95
55932;BME280;41837;55.700;37.984;2023-06-22T12:58:21;99831.56;;;25.64;34.27
55932;BME280;41837;55.700;37.984;2023-06-22T13:00:48;99832.81;;;25.43;34.46
55932;BME280;41837;55.700;37.984;2023-06-22T13:03:14;99820.28;;;25.18;34.76